East Albany, Vermont
Current Conditions -  °F | °C
As of 8:35 PM on Monday 24 Nov 2014 (Local Time) from KEFK Reporting Station
Scattered Clouds Scattered Clouds  
Wind Chill: 53°   Ceiling: Unl
Heat Index: 53°   Visibility: 10mi
Dew Point: 52°   Wind: 7mph
Humidity: 95%   Direction: 190°S
Pressure: 29.44"   Gusts: NA
Location:  44.8143°N, 72.284°W
Report Text: KEFK 250135Z AUTO 19006KT 10SM SCT070 SCT100 12/11 A2944 RMK AO2 T01190111
Loading
Personal Weather Stations






























Interactive Weather Map New forecast layout! Learn more

10-Day Weather Forecast

Advertisements
Track Severe Weather on mobile